sensor_id;sensor_type;location;lat;lon;timestamp;pressure;altitude;pressure_sealevel;temperature;humidity
59043;BME280;44826;51.596;5.624;2023-03-13T00:00:09;100195.31;;;8.72;85.78
59043;BME280;44826;51.596;5.624;2023-03-13T00:02:34;100191.81;;;8.73;86.45
59043;BME280;44826;51.596;5.624;2023-03-13T00:04:59;100188.44;;;8.71;86.60
59043;BME280;44826;51.596;5.624;2023-03-13T00:07:25;100175.47;;;8.71;87.00
59043;BME280;44826;51.596;5.624;2023-03-13T00:09:50;100177.22;;;8.70;86.95
59043;BME280;44826;51.596;5.624;2023-03-13T00:12:15;100170.31;;;8.69;87.42
59043;BME280;44826;51.596;5.624;2023-03-13T00:14:42;100157.41;;;8.68;88.43
59043;BME280;44826;51.596;5.624;2023-03-13T00:17:07;100155.72;;;8.67;88.38
59043;BME280;44826;51.596;5.624;2023-03-13T00:19:32;100143.66;;;8.64;89.09
59043;BME280;44826;51.596;5.624;2023-03-13T00:21:57;100142.88;;;8.62;89.33
59043;BME280;44826;51.596;5.624;2023-03-13T00:24:23;100129.94;;;8.60;89.67
59043;BME280;44826;51.596;5.624;2023-03-13T00:26:48;100126.53;;;8.58;89.52
59043;BME280;44826;51.596;5.624;2023-03-13T00:29:13;100130.03;;;8.57;90.62
59043;BME280;44826;51.596;5.624;2023-03-13T00:31:38;100119.75;;;8.54;90.54
59043;BME280;44826;51.596;5.624;2023-03-13T00:34:04;100113.72;;;8.54;91.49
59043;BME280;44826;51.596;5.624;2023-03-13T00:36:31;100107.78;;;8.50;92.06
59043;BME280;44826;51.596;5.624;2023-03-13T00:38:58;100101.78;;;8.48;92.49
59043;BME280;44826;51.596;5.624;2023-03-13T00:41:26;100096.66;;;8.45;92.86
59043;BME280;44826;51.596;5.624;2023-03-13T00:43:52;100088.97;;;8.42;93.08
59043;BME280;44826;51.596;5.624;2023-03-13T00:46:20;100082.97;;;8.40;93.54
59043;BME280;44826;51.596;5.624;2023-03-13T00:48:46;100080.38;;;8.40;94.44
59043;BME280;44826;51.596;5.624;2023-03-13T00:51:12;100080.44;;;8.38;94.58
59043;BME280;44826;51.596;5.624;2023-03-13T00:53:39;100068.44;;;8.35;95.17
59043;BME280;44826;51.596;5.624;2023-03-13T00:56:07;100066.72;;;8.34;95.44
59043;BME280;44826;51.596;5.624;2023-03-13T00:58:35;100058.97;;;8.34;95.53
59043;BME280;44826;51.596;5.624;2023-03-13T01:01:18;100056.38;;;8.33;94.84
59043;BME280;44826;51.596;5.624;2023-03-13T01:03:47;100047.78;;;8.32;96.00
59043;BME280;44826;51.596;5.624;2023-03-13T01:06:15;100050.31;;;8.34;96.01
59043;BME280;44826;51.596;5.624;2023-03-13T01:08:41;100028.75;;;8.33;96.43
59043;BME280;44826;51.596;5.624;2023-03-13T01:11:13;100032.22;;;8.32;96.69
59043;BME280;44826;51.596;5.624;2023-03-13T01:13:39;100027.03;;;8.32;97.57
59043;BME280;44826;51.596;5.624;2023-03-13T01:18:34;100009.75;;;8.33;97.70
59043;BME280;44826;51.596;5.624;2023-03-13T01:21:00;100001.94;;;8.34;98.23
59043;BME280;44826;51.596;5.624;2023-03-13T01:23:26;99995.88;;;8.35;98.92
59043;BME280;44826;51.596;5.624;2023-03-13T01:25:53;99992.41;;;8.35;99.07
59043;BME280;44826;51.596;5.624;2023-03-13T01:28:19;99988.09;;;8.35;98.88
59043;BME280;44826;51.596;5.624;2023-03-13T01:30:44;99982.00;;;8.37;99.29
59043;BME280;44826;51.596;5.624;2023-03-13T01:33:09;99973.28;;;8.39;99.70
59043;BME280;44826;51.596;5.624;2023-03-13T01:35:34;99973.22;;;8.41;99.89
59043;BME280;44826;51.596;5.624;2023-03-13T01:38:00;99972.31;;;8.43;100.00
59043;BME280;44826;51.596;5.624;2023-03-13T01:40:25;99964.47;;;8.45;100.00
59043;BME280;44826;51.596;5.624;2023-03-13T01:42:58;99960.16;;;8.45;100.00
59043;BME280;44826;51.596;5.624;2023-03-13T01:45:56;99952.31;;;8.47;100.00
59043;BME280;44826;51.596;5.624;2023-03-13T01:48:36;99948.75;;;8.51;100.00
59043;BME280;44826;51.596;5.624;2023-03-13T01:51:09;99953.81;;;8.54;99.70
59043;BME280;44826;51.596;5.624;2023-03-13T01:53:37;99936.44;;;8.58;100.00
59043;BME280;44826;51.596;5.624;2023-03-13T01:56:06;99932.91;;;8.60;100.00
59043;BME280;44826;51.596;5.624;2023-03-13T01:58:33;99917.25;;;8.63;100.00
59043;BME280;44826;51.596;5.624;2023-03-13T02:00:59;99912.81;;;8.67;100.00
59043;BME280;44826;51.596;5.624;2023-03-13T02:03:26;99911.88;;;8.70;100.00
59043;BME280;44826;51.596;5.624;2023-03-13T02:05:54;99911.75;;;8.73;100.00
59043;BME280;44826;51.596;5.624;2023-03-13T02:08:22;99895.25;;;8.75;100.00
59043;BME280;44826;51.596;5.624;2023-03-13T02:11:15;99890.81;;;8.79;100.00
59043;BME280;44826;51.596;5.624;2023-03-13T02:13:43;99878.63;;;8.81;100.00
59043;BME280;44826;51.596;5.624;2023-03-13T02:16:09;99874.19;;;8.85;100.00
59043;BME280;44826;51.596;5.624;2023-03-13T02:18:35;99867.13;;;8.88;100.00
59043;BME280;44826;51.596;5.624;2023-03-13T02:21:10;99861.00;;;8.91;100.00
59043;BME280;44826;51.596;5.624;2023-03-13T02:23:58;99868.63;;;8.95;100.00
59043;BME280;44826;51.596;5.624;2023-03-13T02:26:26;99846.88;;;9.00;100.00
59043;BME280;44826;51.596;5.624;2023-03-13T02:28:52;99850.16;;;9.05;100.00
59043;BME280;44826;51.596;5.624;2023-03-13T02:31:17;99831.06;;;9.06;100.00
59043;BME280;44826;51.596;5.624;2023-03-13T02:33:43;99824.94;;;9.08;100.00
59043;BME280;44826;51.596;5.624;2023-03-13T02:36:10;99812.78;;;9.10;100.00
59043;BME280;44826;51.596;5.624;2023-03-13T02:38:45;99805.81;;;9.11;100.00
59043;BME280;44826;51.596;5.624;2023-03-13T02:41:12;99826.47;;;9.14;100.00
59043;BME280;44826;51.596;5.624;2023-03-13T02:43:37;99813.38;;;9.17;100.00
59043;BME280;44826;51.596;5.624;2023-03-13T02:46:14;99814.13;;;9.21;100.00
59043;BME280;44826;51.596;5.624;2023-03-13T02:48:43;99800.25;;;9.22;100.00
59043;BME280;44826;51.596;5.624;2023-03-13T02:51:35;99816.53;;;9.25;100.00
59043;BME280;44826;51.596;5.624;2023-03-13T02:54:07;99819.91;;;9.27;100.00
59043;BME280;44826;51.596;5.624;2023-03-13T02:56:35;99820.66;;;9.31;100.00
59043;BME280;44826;51.596;5.624;2023-03-13T02:59:02;99804.13;;;9.34;100.00
59043;BME280;44826;51.596;5.624;2023-03-13T03:01:28;99804.03;;;9.37;100.00
59043;BME280;44826;51.596;5.624;2023-03-13T03:03:53;99817.78;;;9.39;100.00
59043;BME280;44826;51.596;5.624;2023-03-13T03:06:18;99828.91;;;9.43;100.00
59043;BME280;44826;51.596;5.624;2023-03-13T03:08:44;99829.63;;;9.46;100.00
59043;BME280;44826;51.596;5.624;2023-03-13T03:11:09;99819.91;;;9.51;100.00
59043;BME280;44826;51.596;5.624;2023-03-13T03:13:35;99823.41;;;9.50;100.00
59043;BME280;44826;51.596;5.624;2023-03-13T03:16:08;99825.13;;;9.51;100.00
59043;BME280;44826;51.596;5.624;2023-03-13T03:18:34;99817.25;;;9.53;100.00
59043;BME280;44826;51.596;5.624;2023-03-13T03:21:00;99816.31;;;9.55;100.00
59043;BME280;44826;51.596;5.624;2023-03-13T03:23:25;99808.53;;;9.55;100.00
59043;BME280;44826;51.596;5.624;2023-03-13T03:25:50;99805.78;;;9.59;100.00
59043;BME280;44826;51.596;5.624;2023-03-13T03:28:16;99798.66;;;9.64;100.00
59043;BME280;44826;51.596;5.624;2023-03-13T03:30:41;99801.16;;;9.67;100.00
59043;BME280;44826;51.596;5.624;2023-03-13T03:33:06;99811.44;;;9.70;100.00
59043;BME280;44826;51.596;5.624;2023-03-13T03:35:32;99793.19;;;9.71;100.00
59043;BME280;44826;51.596;5.624;2023-03-13T03:37:58;99793.13;;;9.73;100.00
59043;BME280;44826;51.596;5.624;2023-03-13T03:40:23;99795.59;;;9.76;100.00
59043;BME280;44826;51.596;5.624;2023-03-13T03:42:48;99792.94;;;9.78;100.00
59043;BME280;44826;51.596;5.624;2023-03-13T03:45:14;99784.97;;;9.82;100.00
59043;BME280;44826;51.596;5.624;2023-03-13T03:47:39;99792.66;;;9.85;100.00
59043;BME280;44826;51.596;5.624;2023-03-13T03:50:04;99784.84;;;9.85;100.00
59043;BME280;44826;51.596;5.624;2023-03-13T03:52:31;99793.44;;;9.87;100.00
59043;BME280;44826;51.596;5.624;2023-03-13T03:54:56;99791.53;;;9.91;100.00
59043;BME280;44826;51.596;5.624;2023-03-13T03:57:23;99790.69;;;9.91;100.00
59043;BME280;44826;51.596;5.624;2023-03-13T03:59:49;99797.41;;;9.96;100.00
59043;BME280;44826;51.596;5.624;2023-03-13T04:02:14;99801.75;;;9.96;100.00
59043;BME280;44826;51.596;5.624;2023-03-13T04:04:39;99793.75;;;10.00;100.00
59043;BME280;44826;51.596;5.624;2023-03-13T04:07:04;99791.25;;;9.99;100.00
59043;BME280;44826;51.596;5.624;2023-03-13T04:09:30;99789.44;;;10.01;100.00
59043;BME280;44826;51.596;5.624;2023-03-13T04:11:55;99779.03;;;10.01;100.00
59043;BME280;44826;51.596;5.624;2023-03-13T04:14:20;99786.63;;;10.06;100.00
59043;BME280;44826;51.596;5.624;2023-03-13T04:16:45;99778.78;;;10.07;100.00
59043;BME280;44826;51.596;5.624;2023-03-13T04:19:11;99772.53;;;10.11;100.00
59043;BME280;44826;51.596;5.624;2023-03-13T04:21:36;99771.63;;;10.12;100.00
59043;BME280;44826;51.596;5.624;2023-03-13T04:24:02;99778.47;;;10.15;100.00
59043;BME280;44826;51.596;5.624;2023-03-13T04:26:27;99781.78;;;10.18;100.00
59043;BME280;44826;51.596;5.624;2023-03-13T04:28:52;99763.41;;;10.23;100.00
59043;BME280;44826;51.596;5.624;2023-03-13T04:31:17;99752.00;;;10.26;100.00
59043;BME280;44826;51.596;5.624;2023-03-13T04:33:43;99753.72;;;10.27;100.00
59043;BME280;44826;51.596;5.624;2023-03-13T04:36:08;99746.69;;;10.29;100.00
59043;BME280;44826;51.596;5.624;2023-03-13T04:38:33;99740.53;;;10.31;100.00
59043;BME280;44826;51.596;5.624;2023-03-13T04:40:59;99732.59;;;10.35;100.00
59043;BME280;44826;51.596;5.624;2023-03-13T04:43:24;99720.22;;;10.41;100.00
59043;BME280;44826;51.596;5.624;2023-03-13T04:45:51;99719.28;;;10.42;100.00
59043;BME280;44826;51.596;5.624;2023-03-13T04:48:18;99716.63;;;10.44;100.00
59043;BME280;44826;51.596;5.624;2023-03-13T04:50:44;99719.16;;;10.45;100.00
59043;BME280;44826;51.596;5.624;2023-03-13T04:53:09;99714.75;;;10.47;100.00
59043;BME280;44826;51.596;5.624;2023-03-13T04:55:34;99705.03;;;10.51;100.00
59043;BME280;44826;51.596;5.624;2023-03-13T04:57:59;99710.06;;;10.56;100.00
59043;BME280;44826;51.596;5.624;2023-03-13T05:00:25;99711.47;;;10.63;100.00
59043;BME280;44826;51.596;5.624;2023-03-13T05:02:50;99693.25;;;10.63;100.00
59043;BME280;44826;51.596;5.624;2023-03-13T05:05:15;99701.84;;;10.65;100.00
59043;BME280;44826;51.596;5.624;2023-03-13T05:07:41;99712.25;;;10.65;100.00
59043;BME280;44826;51.596;5.624;2023-03-13T05:10:06;99696.50;;;10.68;100.00
59043;BME280;44826;51.596;5.624;2023-03-13T05:12:32;99704.19;;;10.71;100.00
59043;BME280;44826;51.596;5.624;2023-03-13T05:14:57;99690.19;;;10.74;100.00
59043;BME280;44826;51.596;5.624;2023-03-13T05:17:22;99680.47;;;10.77;100.00
59043;BME280;44826;51.596;5.624;2023-03-13T05:19:48;99687.38;;;10.78;100.00
59043;BME280;44826;51.596;5.624;2023-03-13T05:22:13;99676.81;;;10.82;100.00
59043;BME280;44826;51.596;5.624;2023-03-13T05:24:39;99685.13;;;10.90;100.00
59043;BME280;44826;51.596;5.624;2023-03-13T05:27:04;99696.31;;;10.92;100.00
59043;BME280;44826;51.596;5.624;2023-03-13T05:29:30;99679.78;;;10.93;100.00
59043;BME280;44826;51.596;5.624;2023-03-13T05:31:55;99685.00;;;10.93;100.00
59043;BME280;44826;51.596;5.624;2023-03-13T05:34:20;99671.03;;;10.94;100.00
59043;BME280;44826;51.596;5.624;2023-03-13T05:36:46;99671.03;;;10.94;100.00
59043;BME280;44826;51.596;5.624;2023-03-13T05:39:11;99677.88;;;10.97;100.00
59043;BME280;44826;51.596;5.624;2023-03-13T05:41:36;99669.09;;;10.99;100.00
59043;BME280;44826;51.596;5.624;2023-03-13T05:44:02;99687.94;;;11.04;100.00
59043;BME280;44826;51.596;5.624;2023-03-13T05:46:27;99686.72;;;11.12;100.00
59043;BME280;44826;51.596;5.624;2023-03-13T05:48:52;99690.75;;;11.19;100.00
59043;BME280;44826;51.596;5.624;2023-03-13T05:51:18;99685.63;;;11.17;100.00
59043;BME280;44826;51.596;5.624;2023-03-13T05:53:43;99683.72;;;11.21;99.70
59043;BME280;44826;51.596;5.624;2023-03-13T05:56:09;99687.13;;;11.21;99.48
59043;BME280;44826;51.596;5.624;2023-03-13T05:58:34;99666.41;;;11.20;99.33
59043;BME280;44826;51.596;5.624;2023-03-13T06:01:13;99690.47;;;11.25;98.38
59043;BME280;44826;51.596;5.624;2023-03-13T06:03:38;99690.47;;;11.25;97.81
59043;BME280;44826;51.596;5.624;2023-03-13T06:06:04;99684.13;;;11.31;97.24
59043;BME280;44826;51.596;5.624;2023-03-13T06:08:29;99692.75;;;11.31;96.53
59043;BME280;44826;51.596;5.624;2023-03-13T06:11:00;99683.13;;;11.33;96.00
59043;BME280;44826;51.596;5.624;2023-03-13T06:13:26;99687.41;;;11.34;95.58
59043;BME280;44826;51.596;5.624;2023-03-13T06:15:52;99686.34;;;11.38;94.79
59043;BME280;44826;51.596;5.624;2023-03-13T06:18:17;99684.53;;;11.41;94.69
59043;BME280;44826;51.596;5.624;2023-03-13T06:20:43;99675.78;;;11.42;94.52
59043;BME280;44826;51.596;5.624;2023-03-13T06:23:08;99687.00;;;11.44;94.01
59043;BME280;44826;51.596;5.624;2023-03-13T06:25:34;99677.16;;;11.49;93.54
59043;BME280;44826;51.596;5.624;2023-03-13T06:27:59;99672.81;;;11.49;92.79
59043;BME280;44826;51.596;5.624;2023-03-13T06:30:24;99688.31;;;11.52;92.83
59043;BME280;44826;51.596;5.624;2023-03-13T06:32:49;99670.75;;;11.56;92.32
59043;BME280;44826;51.596;5.624;2023-03-13T06:35:15;99662.03;;;11.57;91.55
59043;BME280;44826;51.596;5.624;2023-03-13T06:37:40;99673.38;;;11.56;91.93
59043;BME280;44826;51.596;5.624;2023-03-13T06:40:06;99675.06;;;11.57;91.37
59043;BME280;44826;51.596;5.624;2023-03-13T06:42:31;99663.63;;;11.60;91.00
59043;BME280;44826;51.596;5.624;2023-03-13T06:44:56;99673.03;;;11.62;90.56
59043;BME280;44826;51.596;5.624;2023-03-13T06:47:22;99670.44;;;11.62;90.27
59043;BME280;44826;51.596;5.624;2023-03-13T06:49:47;99681.63;;;11.64;90.47
59043;BME280;44826;51.596;5.624;2023-03-13T06:52:12;99674.72;;;11.63;90.13
59043;BME280;44826;51.596;5.624;2023-03-13T06:54:38;99678.09;;;11.65;90.01
59043;BME280;44826;51.596;5.624;2023-03-13T06:57:03;99682.41;;;11.66;90.02
59043;BME280;44826;51.596;5.624;2023-03-13T06:59:28;99686.63;;;11.69;89.43
59043;BME280;44826;51.596;5.624;2023-03-13T07:01:53;99687.47;;;11.69;89.58
59043;BME280;44826;51.596;5.624;2023-03-13T07:04:19;99666.53;;;11.71;89.08
59043;BME280;44826;51.596;5.624;2023-03-13T07:06:44;99669.84;;;11.75;89.17
59043;BME280;44826;51.596;5.624;2023-03-13T07:09:09;99665.31;;;11.78;88.90
59043;BME280;44826;51.596;5.624;2023-03-13T07:11:35;99662.56;;;11.81;88.19
59043;BME280;44826;51.596;5.624;2023-03-13T07:14:00;99655.59;;;11.82;88.54
59043;BME280;44826;51.596;5.624;2023-03-13T07:16:26;99672.00;;;11.84;88.02
59043;BME280;44826;51.596;5.624;2023-03-13T07:18:51;99663.25;;;11.85;87.90
59043;BME280;44826;51.596;5.624;2023-03-13T07:21:17;99658.13;;;11.83;87.46
59043;BME280;44826;51.596;5.624;2023-03-13T07:23:42;99683.03;;;11.89;87.66
59043;BME280;44826;51.596;5.624;2023-03-13T07:26:12;99650.00;;;11.90;87.73
59043;BME280;44826;51.596;5.624;2023-03-13T07:28:37;99661.13;;;11.93;87.54
59043;BME280;44826;51.596;5.624;2023-03-13T07:31:09;99665.22;;;11.97;87.20
59043;BME280;44826;51.596;5.624;2023-03-13T07:33:35;99661.91;;;11.95;87.38
59043;BME280;44826;51.596;5.624;2023-03-13T07:36:00;99667.81;;;11.99;86.98
59043;BME280;44826;51.596;5.624;2023-03-13T07:38:26;99662.34;;;12.04;86.68
59043;BME280;44826;51.596;5.624;2023-03-13T07:40:53;99676.84;;;12.09;86.25
59043;BME280;44826;51.596;5.624;2023-03-13T07:43:19;99670.66;;;12.12;86.35
59043;BME280;44826;51.596;5.624;2023-03-13T07:46:00;99663.75;;;12.11;86.40
59043;BME280;44826;51.596;5.624;2023-03-13T07:48:31;99667.09;;;12.13;86.52
59043;BME280;44826;51.596;5.624;2023-03-13T07:50:57;99661.72;;;12.16;86.67
59043;BME280;44826;51.596;5.624;2023-03-13T07:53:23;99662.66;;;12.15;86.33
59043;BME280;44826;51.596;5.624;2023-03-13T07:55:57;99663.50;;;12.16;86.66
59043;BME280;44826;51.596;5.624;2023-03-13T07:58:24;99668.63;;;12.17;86.30
59043;BME280;44826;51.596;5.624;2023-03-13T08:00:50;99672.16;;;12.16;86.05
59043;BME280;44826;51.596;5.624;2023-03-13T08:03:15;99674.69;;;12.18;86.11
59043;BME280;44826;51.596;5.624;2023-03-13T08:05:41;99668.72;;;12.16;86.28
59043;BME280;44826;51.596;5.624;2023-03-13T08:08:06;99669.50;;;12.18;86.21
59043;BME280;44826;51.596;5.624;2023-03-13T08:10:32;99667.66;;;12.20;86.54
59043;BME280;44826;51.596;5.624;2023-03-13T08:12:57;99656.06;;;12.25;86.42
59043;BME280;44826;51.596;5.624;2023-03-13T08:15:22;99646.97;;;12.33;86.36
59043;BME280;44826;51.596;5.624;2023-03-13T08:17:51;99653.47;;;12.41;85.91
59043;BME280;44826;51.596;5.624;2023-03-13T08:20:17;99651.38;;;12.48;85.32
59043;BME280;44826;51.596;5.624;2023-03-13T08:22:45;99629.53;;;12.51;85.79
59043;BME280;44826;51.596;5.624;2023-03-13T08:25:11;99640.63;;;12.54;86.15
59043;BME280;44826;51.596;5.624;2023-03-13T08:27:36;99633.31;;;12.61;84.76
59043;BME280;44826;51.596;5.624;2023-03-13T08:30:02;99646.28;;;12.63;84.25
59043;BME280;44826;51.596;5.624;2023-03-13T08:32:28;99632.22;;;12.65;84.17
59043;BME280;44826;51.596;5.624;2023-03-13T08:34:53;99641.81;;;12.65;83.96
59043;BME280;44826;51.596;5.624;2023-03-13T08:37:18;99644.41;;;12.65;84.38
59043;BME280;44826;51.596;5.624;2023-03-13T08:39:44;99645.19;;;12.67;83.42
59043;BME280;44826;51.596;5.624;2023-03-13T08:42:11;99634.75;;;12.67;83.71
59043;BME280;44826;51.596;5.624;2023-03-13T08:44:38;99648.38;;;12.72;83.33
59043;BME280;44826;51.596;5.624;2023-03-13T08:47:05;99632.72;;;12.72;82.77
59043;BME280;44826;51.596;5.624;2023-03-13T08:49:30;99635.34;;;12.72;82.98
59043;BME280;44826;51.596;5.624;2023-03-13T08:51:55;99628.28;;;12.74;82.31
59043;BME280;44826;51.596;5.624;2023-03-13T08:54:21;99617.84;;;12.74;82.30
59043;BME280;44826;51.596;5.624;2023-03-13T08:56:46;99621.22;;;12.76;82.03
59043;BME280;44826;51.596;5.624;2023-03-13T08:59:11;99632.41;;;12.78;82.22
59043;BME280;44826;51.596;5.624;2023-03-13T09:01:36;99626.84;;;12.84;81.72
59043;BME280;44826;51.596;5.624;2023-03-13T09:04:04;99633.25;;;12.95;81.30
59043;BME280;44826;51.596;5.624;2023-03-13T09:06:31;99624.31;;;12.99;80.49
59043;BME280;44826;51.596;5.624;2023-03-13T09:08:57;99631.22;;;13.00;81.26
59043;BME280;44826;51.596;5.624;2023-03-13T09:11:22;99605.88;;;13.02;81.54
59043;BME280;44826;51.596;5.624;2023-03-13T09:13:49;99615.88;;;13.10;81.43
59043;BME280;44826;51.596;5.624;2023-03-13T09:16:19;99607.81;;;13.14;80.92
59043;BME280;44826;51.596;5.624;2023-03-13T09:18:45;99599.72;;;13.19;80.94
59043;BME280;44826;51.596;5.624;2023-03-13T09:21:17;99628.00;;;13.27;80.21
59043;BME280;44826;51.596;5.624;2023-03-13T09:23:43;99610.66;;;13.26;80.56
59043;BME280;44826;51.596;5.624;2023-03-13T09:26:09;99595.13;;;13.23;81.04
59043;BME280;44826;51.596;5.624;2023-03-13T09:28:34;99605.69;;;13.21;80.81
59043;BME280;44826;51.596;5.624;2023-03-13T09:31:11;99602.16;;;13.22;81.37
59043;BME280;44826;51.596;5.624;2023-03-13T09:33:37;99585.19;;;13.29;80.93
59043;BME280;44826;51.596;5.624;2023-03-13T09:36:03;99582.41;;;13.32;80.79
59043;BME280;44826;51.596;5.624;2023-03-13T09:38:29;99578.97;;;13.32;80.80
59043;BME280;44826;51.596;5.624;2023-03-13T09:40:54;99572.72;;;13.34;80.92
59043;BME280;44826;51.596;5.624;2023-03-13T09:46:02;99551.63;;;13.38;80.92
59043;BME280;44826;51.596;5.624;2023-03-13T09:48:31;99538.22;;;13.44;80.45
59043;BME280;44826;51.596;5.624;2023-03-13T09:54:00;99534.06;;;13.56;79.28
59043;BME280;44826;51.596;5.624;2023-03-13T09:56:36;99544.69;;;13.67;78.62
59043;BME280;44826;51.596;5.624;2023-03-13T09:59:15;99543.25;;;13.77;78.55
59043;BME280;44826;51.596;5.624;2023-03-13T10:01:45;99542.94;;;13.82;77.92
59043;BME280;44826;51.596;5.624;2023-03-13T10:06:43;99548.66;;;13.89;76.97
59043;BME280;44826;51.596;5.624;2023-03-13T10:09:22;99543.06;;;13.95;76.91
59043;BME280;44826;51.596;5.624;2023-03-13T10:11:55;99546.25;;;14.00;76.92
59043;BME280;44826;51.596;5.624;2023-03-13T10:17:33;99546.78;;;14.20;74.16
59043;BME280;44826;51.596;5.624;2023-03-13T10:22:50;99533.50;;;14.23;73.58
59043;BME280;44826;51.596;5.624;2023-03-13T10:25:27;99529.59;;;14.30;73.92
59043;BME280;44826;51.596;5.624;2023-03-13T10:27:54;99529.00;;;14.39;73.08
59043;BME280;44826;51.596;5.624;2023-03-13T10:30:27;99511.44;;;14.41;73.86
59043;BME280;44826;51.596;5.624;2023-03-13T10:32:58;99526.75;;;14.48;71.72
59043;BME280;44826;51.596;5.624;2023-03-13T10:35:29;99525.81;;;14.49;71.13
59043;BME280;44826;51.596;5.624;2023-03-13T10:40:32;99510.44;;;14.57;71.45
59043;BME280;44826;51.596;5.624;2023-03-13T10:43:05;99510.25;;;14.60;71.10
59043;BME280;44826;51.596;5.624;2023-03-13T10:45:34;99506.50;;;14.64;70.39
59043;BME280;44826;51.596;5.624;2023-03-13T10:48:03;99516.97;;;14.64;70.69
59043;BME280;44826;51.596;5.624;2023-03-13T10:50:34;99500.19;;;14.68;69.91
59043;BME280;44826;51.596;5.624;2023-03-13T10:53:18;99491.38;;;14.69;70.62
59043;BME280;44826;51.596;5.624;2023-03-13T10:55:45;99498.75;;;14.77;69.67
59043;BME280;44826;51.596;5.624;2023-03-13T10:58:18;99501.06;;;14.82;69.82
59043;BME280;44826;51.596;5.624;2023-03-13T11:00:44;99489.66;;;14.83;69.63
59043;BME280;44826;51.596;5.624;2023-03-13T11:03:24;99489.03;;;14.92;70.57
59043;BME280;44826;51.596;5.624;2023-03-13T11:06:22;99486.97;;;14.97;70.00
59043;BME280;44826;51.596;5.624;2023-03-13T11:08:48;99485.09;;;14.99;70.23
59043;BME280;44826;51.596;5.624;2023-03-13T11:11:19;99486.25;;;15.08;69.75
59043;BME280;44826;51.596;5.624;2023-03-13T11:13:45;99441.81;;;15.07;68.99
59043;BME280;44826;51.596;5.624;2023-03-13T11:16:21;99493.06;;;15.11;69.20
59043;BME280;44826;51.596;5.624;2023-03-13T11:19:07;99468.75;;;15.09;69.11
59043;BME280;44826;51.596;5.624;2023-03-13T11:22:08;99473.78;;;15.12;68.91
59043;BME280;44826;51.596;5.624;2023-03-13T11:30:51;99469.69;;;15.21;66.71
59043;BME280;44826;51.596;5.624;2023-03-13T11:38:39;99440.66;;;15.50;64.11
59043;BME280;44826;51.596;5.624;2023-03-13T11:41:27;99443.28;;;15.50;63.03
59043;BME280;44826;51.596;5.624;2023-03-13T11:44:21;99452.22;;;15.47;62.37
59043;BME280;44826;51.596;5.624;2023-03-13T12:01:15;99423.28;;;15.36;62.39
59043;BME280;44826;51.596;5.624;2023-03-13T12:06:23;99443.59;;;15.32;60.80
59043;BME280;44826;51.596;5.624;2023-03-13T12:08:54;99402.41;;;15.34;59.50
59043;BME280;44826;51.596;5.624;2023-03-13T12:11:27;99413.50;;;15.38;59.54
59043;BME280;44826;51.596;5.624;2023-03-13T12:19:01;99399.59;;;15.37;61.74
59043;BME280;44826;51.596;5.624;2023-03-13T12:21:36;99407.78;;;15.32;62.17
59043;BME280;44826;51.596;5.624;2023-03-13T12:26:46;99394.16;;;15.40;63.15
59043;BME280;44826;51.596;5.624;2023-03-13T12:29:36;99402.22;;;15.37;63.05
59043;BME280;44826;51.596;5.624;2023-03-13T12:32:35;99392.06;;;15.32;62.59
59043;BME280;44826;51.596;5.624;2023-03-13T12:37:35;99372.03;;;15.31;62.77
59043;BME280;44826;51.596;5.624;2023-03-13T12:40:15;99375.47;;;15.45;61.83
59043;BME280;44826;51.596;5.624;2023-03-13T12:43:09;99374.41;;;15.60;60.19
59043;BME280;44826;51.596;5.624;2023-03-13T12:45:50;99356.84;;;15.74;60.02
59043;BME280;44826;51.596;5.624;2023-03-13T12:48:43;99330.53;;;15.88;59.69
59043;BME280;44826;51.596;5.624;2023-03-13T12:51:37;99342.63;;;16.02;59.07
59043;BME280;44826;51.596;5.624;2023-03-13T12:54:16;99336.88;;;16.21;59.11
59043;BME280;44826;51.596;5.624;2023-03-13T12:57:19;99318.53;;;16.33;59.42
59043;BME280;44826;51.596;5.624;2023-03-13T12:59:51;99334.09;;;16.47;56.63
59043;BME280;44826;51.596;5.624;2023-03-13T13:02:20;99332.94;;;16.63;56.49
59043;BME280;44826;51.596;5.624;2023-03-13T13:04:48;99335.84;;;16.71;55.82
59043;BME280;44826;51.596;5.624;2023-03-13T13:12:46;99319.63;;;16.89;54.21
59043;BME280;44826;51.596;5.624;2023-03-13T13:15:21;99335.78;;;16.95;52.52
59043;BME280;44826;51.596;5.624;2023-03-13T13:20:43;99314.16;;;17.14;53.04
59043;BME280;44826;51.596;5.624;2023-03-13T13:28:46;99321.03;;;17.61;51.54
59043;BME280;44826;51.596;5.624;2023-03-13T13:34:01;99311.47;;;17.71;52.53
59043;BME280;44826;51.596;5.624;2023-03-13T13:36:28;99319.91;;;17.86;52.88
59043;BME280;44826;51.596;5.624;2023-03-13T13:38:54;99310.78;;;18.02;53.33
59043;BME280;44826;51.596;5.624;2023-03-13T13:41:32;99305.25;;;18.16;53.36
59043;BME280;44826;51.596;5.624;2023-03-13T13:44:23;99313.91;;;18.28;53.39
59043;BME280;44826;51.596;5.624;2023-03-13T13:46:49;99299.28;;;18.35;52.67
59043;BME280;44826;51.596;5.624;2023-03-13T13:49:19;99303.47;;;18.38;53.03
59043;BME280;44826;51.596;5.624;2023-03-13T13:54:52;99288.44;;;17.96;52.57
59043;BME280;44826;51.596;5.624;2023-03-13T13:57:25;99276.91;;;17.76;53.12
59043;BME280;44826;51.596;5.624;2023-03-13T13:59:58;99283.03;;;17.65;53.18
59043;BME280;44826;51.596;5.624;2023-03-13T14:02:34;99297.38;;;17.61;53.89
59043;BME280;44826;51.596;5.624;2023-03-13T14:05:03;99299.28;;;17.70;53.85
59043;BME280;44826;51.596;5.624;2023-03-13T14:07:36;99295.94;;;17.68;52.60
59043;BME280;44826;51.596;5.624;2023-03-13T14:10:27;99268.63;;;17.48;53.60
59043;BME280;44826;51.596;5.624;2023-03-13T14:12:56;99274.22;;;17.43;52.20
59043;BME280;44826;51.596;5.624;2023-03-13T14:15:26;99272.34;;;17.34;52.36
59043;BME280;44826;51.596;5.624;2023-03-13T14:17:57;99278.78;;;17.41;52.97
59043;BME280;44826;51.596;5.624;2023-03-13T14:20:30;99273.50;;;17.53;52.60
59043;BME280;44826;51.596;5.624;2023-03-13T14:22:59;99265.09;;;17.70;50.85
59043;BME280;44826;51.596;5.624;2023-03-13T14:25:25;99264.53;;;17.99;50.47